Time;durP1;ratioP1;P1;durP2;ratioP2;P2;SDS_P1;SDS_P2;PMS_P1;PMS_P2;Temp;Humidity;BMP_temperature;BMP_pressure;BME280_temperature;BME280_humidity;BME280_pressure;Samples;Min_cycle;Max_cycle;Signal;HPM_P1;HPM_P2
2024/01/28 00:00:43;;;;;;;10.00;3.67;;;2.60;99.90;;;;;;4949748;28;20490;-85
2024/01/28 00:03:09;;;;;;;19.23;3.53;;;2.50;99.90;;;;;;4952751;28;20027;-86
2024/01/28 00:05:36;;;;;;;34.60;4.88;;;2.40;99.90;;;;;;4947408;28;20379;-85
2024/01/28 00:08:05;;;;;;;19.40;4.90;;;2.40;99.90;;;;;;4949459;28;20062;-85
2024/01/28 00:10:30;;;;;;;13.43;3.40;;;2.30;99.90;;;;;;4948560;29;20070;-85
2024/01/28 00:12:56;;;;;;;21.83;4.25;;;2.30;99.90;;;;;;4953694;28;20019;-86
2024/01/28 00:15:22;;;;;;;18.80;3.85;;;2.20;99.90;;;;;;4946057;28;20031;-86
2024/01/28 00:17:48;;;;;;;13.80;3.50;;;2.20;99.90;;;;;;4947843;29;20151;-85
2024/01/28 00:20:13;;;;;;;8.80;3.42;;;2.20;99.90;;;;;;4946845;28;20392;-85
2024/01/28 00:22:39;;;;;;;14.07;4.10;;;2.20;99.90;;;;;;4949240;28;20062;-86
2024/01/28 00:25:05;;;;;;;14.48;4.00;;;2.20;99.90;;;;;;4949774;28;20055;-85
2024/01/28 00:27:31;;;;;;;16.17;4.88;;;2.20;99.90;;;;;;4950839;28;20369;-89
2024/01/28 00:29:56;;;;;;;24.13;4.85;;;2.20;99.90;;;;;;4940761;29;20479;-86
2024/01/28 00:32:22;;;;;;;16.50;4.03;;;2.20;99.90;;;;;;4951537;28;20085;-86
2024/01/28 00:34:47;;;;;;;20.45;4.20;;;2.00;99.90;;;;;;4948795;28;20031;-86
2024/01/28 00:37:13;;;;;;;15.88;3.78;;;2.00;99.90;;;;;;4949277;28;20114;-86
2024/01/28 00:39:39;;;;;;;14.60;3.15;;;1.90;99.90;;;;;;4946924;28;20031;-86
2024/01/28 00:42:05;;;;;;;22.27;3.80;;;1.80;99.90;;;;;;4947101;28;20419;-85
2024/01/28 00:44:31;;;;;;;32.33;4.60;;;1.80;99.90;;;;;;4950419;28;20023;-85
2024/01/28 00:46:58;;;;;;;12.68;3.97;;;1.80;99.90;;;;;;4952509;28;20034;-88
2024/01/28 00:49:29;;;;;;;9.88;3.28;;;1.80;99.90;;;;;;4949408;29;20035;-85
2024/01/28 00:52:02;;;;;;;14.65;4.30;;;1.90;99.90;;;;;;4952703;28;20047;-85
2024/01/28 00:54:27;;;;;;;12.82;4.03;;;1.80;99.90;;;;;;4947049;29;20031;-85
2024/01/28 00:56:56;;;;;;;11.98;3.58;;;1.80;99.90;;;;;;4948131;28;20090;-88
2024/01/28 00:59:23;;;;;;;18.60;3.80;;;1.80;99.90;;;;;;4944995;29;20109;-86
2024/01/28 01:01:48;;;;;;;12.65;4.00;;;1.80;99.90;;;;;;4942897;28;20126;-85
2024/01/28 01:04:14;;;;;;;18.13;4.32;;;1.80;99.90;;;;;;4950016;28;20130;-86
2024/01/28 01:06:43;;;;;;;16.88;4.20;;;1.80;99.90;;;;;;4950178;28;20035;-87
2024/01/28 01:09:09;;;;;;;18.60;5.13;;;1.80;99.90;;;;;;4929475;29;20464;-85
2024/01/28 01:11:35;;;;;;;42.10;4.63;;;1.70;99.90;;;;;;4950459;28;20031;-85
2024/01/28 01:14:01;;;;;;;19.30;4.00;;;1.70;99.90;;;;;;4948135;29;20027;-85
2024/01/28 01:16:28;;;;;;;15.85;3.40;;;1.70;99.90;;;;;;4960040;28;20019;-86
2024/01/28 01:18:54;;;;;;;13.40;3.47;;;1.60;99.90;;;;;;4948517;28;20134;-85
2024/01/28 01:21:19;;;;;;;15.68;3.30;;;1.60;99.90;;;;;;4947015;28;20115;-85
2024/01/28 01:23:45;;;;;;;16.60;3.80;;;1.50;99.90;;;;;;4950270;28;20030;-85
2024/01/28 01:26:11;;;;;;;12.30;3.30;;;1.50;99.90;;;;;;4950096;28;20027;-85
2024/01/28 01:28:38;;;;;;;19.23;3.25;;;1.50;99.90;;;;;;4948477;29;20253;-88
2024/01/28 01:31:04;;;;;;;11.90;3.10;;;1.50;99.90;;;;;;4947468;29;20031;-85
2024/01/28 01:33:29;;;;;;;10.55;2.95;;;1.50;99.90;;;;;;4938416;29;20031;-85
2024/01/28 01:35:55;;;;;;;14.23;3.00;;;1.50;99.90;;;;;;4945510;29;20507;-85
2024/01/28 01:38:22;;;;;;;11.55;3.53;;;1.50;99.90;;;;;;4946838;29;20051;-85
2024/01/28 01:40:47;;;;;;;7.88;2.83;;;1.50;99.90;;;;;;4944615;28;20028;-85
2024/01/28 01:43:16;;;;;;;19.15;3.15;;;1.50;99.90;;;;;;4947459;28;20027;-89
2024/01/28 01:45:44;;;;;;;15.90;3.95;;;1.50;99.90;;;;;;4949057;28;20033;-86
2024/01/28 01:48:15;;;;;;;31.85;5.07;;;1.50;99.90;;;;;;4953265;28;20078;-85
2024/01/28 01:50:43;;;;;;;11.23;3.40;;;1.40;99.90;;;;;;4946739;28;20122;-86
2024/01/28 01:53:13;;;;;;;13.60;3.10;;;1.40;99.90;;;;;;4948678;29;20079;-85
2024/01/28 01:55:40;;;;;;;21.20;3.50;;;1.40;99.90;;;;;;4944945;29;20078;-85
2024/01/28 01:58:07;;;;;;;20.73;3.58;;;1.40;99.90;;;;;;4953251;28;20117;-85
2024/01/28 02:00:34;;;;;;;10.48;3.38;;;1.40;99.90;;;;;;4950656;28;20498;-85
2024/01/28 02:03:03;;;;;;;12.70;3.92;;;1.40;99.90;;;;;;4945674;28;20030;-85
2024/01/28 02:05:29;;;;;;;14.30;3.63;;;1.50;99.90;;;;;;4951082;28;20053;-86
2024/01/28 02:07:54;;;;;;;9.70;2.83;;;1.50;99.90;;;;;;4947380;29;20163;-85
2024/01/28 02:10:22;;;;;;;9.10;3.05;;;1.50;99.90;;;;;;4947623;29;20044;-85
2024/01/28 02:12:50;;;;;;;19.20;3.60;;;1.40;99.90;;;;;;4946088;29;20535;-85
2024/01/28 02:15:16;;;;;;;10.02;3.17;;;1.50;99.90;;;;;;4944803;28;20486;-85
2024/01/28 02:17:43;;;;;;;20.05;3.90;;;1.50;99.90;;;;;;4944959;29;20023;-87
2024/01/28 02:20:09;;;;;;;11.95;3.38;;;1.50;99.90;;;;;;4948387;28;20134;-85
2024/01/28 02:22:35;;;;;;;14.63;3.00;;;1.50;99.90;;;;;;4953962;28;20018;-85
2024/01/28 02:25:03;;;;;;;7.78;2.97;;;1.40;99.90;;;;;;4946799;29;20030;-85
2024/01/28 02:27:29;;;;;;;18.60;3.10;;;1.30;99.90;;;;;;4949266;28;20337;-89
2024/01/28 02:29:55;;;;;;;14.73;2.80;;;1.30;99.90;;;;;;4947593;29;20030;-85
2024/01/28 02:32:21;;;;;;;13.63;3.03;;;1.30;99.90;;;;;;4949160;28;20032;-85
2024/01/28 02:34:46;;;;;;;10.85;3.15;;;1.30;99.90;;;;;;4926820;29;20366;-85
2024/01/28 02:37:13;;;;;;;13.30;3.17;;;1.30;99.90;;;;;;4944648;29;20110;-85
2024/01/28 02:39:40;;;;;;;11.32;2.50;;;1.30;99.90;;;;;;4944487;29;20103;-86
2024/01/28 02:42:18;;;;;;;18.70;2.83;;;1.30;99.90;;;;;;4946187;29;20369;-85
2024/01/28 02:44:44;;;;;;;10.65;3.00;;;1.30;99.90;;;;;;4943776;29;20031;-86
2024/01/28 02:47:09;;;;;;;19.55;3.35;;;1.30;99.90;;;;;;4951234;28;20488;-86
2024/01/28 02:49:35;;;;;;;12.77;3.58;;;1.20;99.90;;;;;;4953706;28;20034;-84
2024/01/28 02:52:00;;;;;;;19.73;3.63;;;1.20;99.90;;;;;;4947752;28;20047;-85
2024/01/28 02:54:26;;;;;;;9.82;2.58;;;1.10;99.90;;;;;;4946887;29;20039;-86
2024/01/28 02:56:52;;;;;;;14.43;3.05;;;1.10;99.90;;;;;;4948076;28;20023;-85
2024/01/28 02:59:17;;;;;;;10.18;3.08;;;1.10;99.90;;;;;;4948969;28;20039;-85
2024/01/28 03:01:47;;;;;;;16.77;3.83;;;1.00;99.90;;;;;;4944874;29;20023;-85
2024/01/28 03:04:16;;;;;;;11.55;3.50;;;1.10;99.90;;;;;;4944576;29;20030;-86
2024/01/28 03:06:42;;;;;;;20.25;3.92;;;1.10;99.90;;;;;;4946044;28;20027;-86
2024/01/28 03:09:11;;;;;;;17.48;3.33;;;1.10;99.90;;;;;;4947947;29;20042;-88
2024/01/28 03:11:38;;;;;;;11.05;2.88;;;1.10;99.90;;;;;;4928478;29;20027;-85
2024/01/28 03:14:04;;;;;;;12.90;2.58;;;1.10;99.90;;;;;;4947859;29;20023;-85
2024/01/28 03:16:29;;;;;;;11.77;2.90;;;1.10;99.90;;;;;;4948073;28;20082;-84
2024/01/28 03:18:55;;;;;;;10.35;3.40;;;1.10;99.90;;;;;;4939748;29;20477;-86
2024/01/28 03:21:21;;;;;;;11.85;2.75;;;1.10;99.90;;;;;;4947629;29;20051;-86
2024/01/28 03:23:46;;;;;;;16.52;4.22;;;1.10;99.90;;;;;;4951476;28;20410;-85
2024/01/28 03:26:12;;;;;;;15.68;3.53;;;1.10;99.90;;;;;;4946270;29;20028;-85
2024/01/28 03:28:41;;;;;;;9.57;3.45;;;1.10;99.90;;;;;;4948170;29;20054;-87
2024/01/28 03:31:08;;;;;;;19.08;3.78;;;1.10;99.90;;;;;;4940534;29;20459;-85
2024/01/28 03:33:34;;;;;;;15.23;2.90;;;1.10;99.90;;;;;;4945749;29;20019;-85
2024/01/28 03:35:59;;;;;;;9.73;2.78;;;1.10;99.90;;;;;;4953486;28;20019;-85
2024/01/28 03:38:25;;;;;;;12.27;2.75;;;1.20;99.90;;;;;;4950235;28;20031;-86
2024/01/28 03:40:50;;;;;;;10.27;3.15;;;1.20;99.90;;;;;;4949551;29;20122;-85
2024/01/28 03:43:16;;;;;;;13.02;2.70;;;1.20;99.90;;;;;;4954432;28;20480;-85
2024/01/28 03:45:42;;;;;;;16.88;3.13;;;1.20;99.90;;;;;;4952809;28;20415;-88
2024/01/28 03:48:07;;;;;;;5.13;2.25;;;1.10;99.90;;;;;;4955015;28;20035;-85
2024/01/28 03:50:33;;;;;;;15.80;3.58;;;1.10;99.90;;;;;;4950232;29;20579;-84
2024/01/28 03:52:59;;;;;;;15.52;3.20;;;1.10;99.90;;;;;;4946072;28;20055;-86
2024/01/28 03:55:24;;;;;;;17.90;4.72;;;1.10;99.90;;;;;;4949649;28;20081;-84
2024/01/28 03:57:50;;;;;;;16.00;4.25;;;1.10;99.90;;;;;;4953884;28;20023;-85
2024/01/28 04:00:18;;;;;;;8.95;3.60;;;1.00;99.90;;;;;;4945457;28;20098;-85
2024/01/28 04:02:44;;;;;;;12.75;4.25;;;1.00;99.90;;;;;;4944052;28;20030;-85
2024/01/28 04:05:10;;;;;;;20.02;5.18;;;1.00;99.90;;;;;;4946318;28;20035;-85
2024/01/28 04:07:35;;;;;;;15.63;5.00;;;0.90;99.90;;;;;;4945431;29;20019;-85
2024/01/28 04:10:01;;;;;;;12.95;4.65;;;0.90;99.90;;;;;;4931873;29;20058;-86
2024/01/28 04:12:27;;;;;;;13.35;4.47;;;0.80;99.90;;;;;;4933425;28;20121;-86
2024/01/28 04:14:52;;;;;;;9.95;4.03;;;0.80;99.90;;;;;;4947493;28;20111;-85
2024/01/28 04:17:18;;;;;;;18.13;4.60;;;0.80;99.90;;;;;;4948553;28;20099;-83
2024/01/28 04:19:43;;;;;;;8.50;3.75;;;0.80;99.90;;;;;;4948634;28;20090;-87
2024/01/28 04:22:12;;;;;;;11.68;3.90;;;0.80;99.90;;;;;;4949946;28;20058;-85
2024/01/28 04:24:38;;;;;;;20.17;3.70;;;0.80;99.90;;;;;;4949306;28;20041;-87
2024/01/28 04:27:04;;;;;;;10.88;4.28;;;0.80;99.90;;;;;;4950573;28;20023;-84
2024/01/28 04:29:29;;;;;;;7.35;3.13;;;0.80;99.90;;;;;;4948543;28;20035;-84
2024/01/28 04:31:55;;;;;;;11.75;3.47;;;0.80;99.90;;;;;;4950696;28;20502;-85
2024/01/28 04:34:24;;;;;;;11.52;3.10;;;0.80;99.90;;;;;;4945191;28;20024;-85
2024/01/28 04:36:50;;;;;;;12.32;3.40;;;0.80;99.90;;;;;;4944399;28;20405;-85
2024/01/28 04:39:15;;;;;;;8.25;2.67;;;0.80;99.90;;;;;;4944625;28;20058;-85
2024/01/28 04:41:41;;;;;;;11.15;3.70;;;0.80;99.90;;;;;;4947381;28;20031;-86
2024/01/28 04:44:07;;;;;;;8.98;2.78;;;0.70;99.90;;;;;;4945566;28;20467;-85
2024/01/28 04:46:33;;;;;;;14.00;3.67;;;0.70;99.90;;;;;;4945889;28;20038;-85
2024/01/28 04:49:00;;;;;;;12.13;3.00;;;0.70;99.90;;;;;;4944974;28;20310;-85
2024/01/28 04:51:28;;;;;;;9.88;2.88;;;0.60;99.90;;;;;;4941183;28;20042;-86
2024/01/28 04:53:53;;;;;;;10.60;2.80;;;0.60;99.90;;;;;;4950756;28;20102;-86
2024/01/28 04:56:19;;;;;;;9.18;2.72;;;0.60;99.90;;;;;;4947646;28;20102;-85
2024/01/28 04:58:45;;;;;;;7.25;2.63;;;0.60;99.90;;;;;;4945890;28;20423;-85
2024/01/28 05:01:10;;;;;;;9.25;3.42;;;0.60;99.90;;;;;;4941644;28;20043;-85
2024/01/28 05:03:36;;;;;;;12.95;2.65;;;0.60;99.90;;;;;;4943256;28;20070;-86
2024/01/28 05:06:04;;;;;;;9.63;2.40;;;0.60;99.90;;;;;;4960194;28;20642;-87
2024/01/28 05:08:30;;;;;;;15.43;2.75;;;0.70;99.90;;;;;;4953833;28;20027;-85
2024/01/28 05:10:57;;;;;;;11.50;2.67;;;0.70;99.90;;;;;;4945003;28;20349;-86
2024/01/28 05:13:23;;;;;;;17.25;3.13;;;0.60;99.90;;;;;;4947560;28;20483;-84
2024/01/28 05:15:48;;;;;;;13.55;3.05;;;0.60;99.90;;;;;;4941895;28;20015;-85
2024/01/28 05:18:15;;;;;;;10.48;3.08;;;0.60;99.90;;;;;;4945845;28;20039;-85
2024/01/28 05:20:41;;;;;;;8.05;3.05;;;0.50;99.90;;;;;;4954556;28;20399;-85
2024/01/28 05:23:06;;;;;;;8.63;2.45;;;0.50;99.90;;;;;;4945162;28;20019;-85
2024/01/28 05:25:32;;;;;;;8.45;2.67;;;0.40;99.90;;;;;;4946446;28;20116;-84
2024/01/28 05:27:59;;;;;;;6.80;2.33;;;0.40;99.90;;;;;;4944846;28;20408;-86
2024/01/28 05:30:24;;;;;;;10.75;3.05;;;0.40;99.90;;;;;;4947446;28;21137;-85
2024/01/28 05:32:50;;;;;;;6.60;2.55;;;0.40;99.90;;;;;;4949389;28;20027;-84
2024/01/28 05:35:16;;;;;;;4.68;2.35;;;0.40;99.90;;;;;;4944897;29;20361;-85
2024/01/28 05:37:41;;;;;;;7.00;2.40;;;0.40;99.90;;;;;;4944349;28;20036;-85
2024/01/28 05:40:10;;;;;;;6.07;2.65;;;0.40;99.90;;;;;;4942429;28;20061;-84
2024/01/28 05:42:36;;;;;;;12.95;5.20;;;0.50;99.90;;;;;;4943778;28;20019;-85
2024/01/28 05:45:02;;;;;;;2.85;2.35;;;0.50;99.90;;;;;;4948563;28;20027;-84
2024/01/28 05:47:27;;;;;;;12.10;3.20;;;0.50;99.90;;;;;;4945113;28;20034;-85
2024/01/28 05:49:54;;;;;;;9.68;2.42;;;0.40;99.90;;;;;;4949469;28;20023;-88
2024/01/28 05:52:19;;;;;;;9.88;2.88;;;0.40;99.90;;;;;;4945067;28;20310;-84
2024/01/28 05:54:45;;;;;;;9.88;2.70;;;0.40;99.90;;;;;;4942930;28;20031;-85
2024/01/28 05:57:10;;;;;;;12.15;2.90;;;0.30;99.90;;;;;;4943656;28;20050;-85
2024/01/28 05:59:36;;;;;;;15.23;3.33;;;0.30;99.90;;;;;;4943684;28;20042;-84
2024/01/28 06:02:03;;;;;;;13.35;2.65;;;0.30;99.90;;;;;;4948704;28;20054;-84
2024/01/28 06:04:29;;;;;;;13.13;3.00;;;0.20;99.90;;;;;;4949640;28;20023;-84
2024/01/28 06:06:54;;;;;;;10.18;3.22;;;0.20;99.90;;;;;;4943870;28;20483;-85
2024/01/28 06:09:23;;;;;;;9.63;3.30;;;0.20;99.90;;;;;;4944785;28;20375;-87
2024/01/28 06:11:49;;;;;;;18.42;3.25;;;0.20;99.90;;;;;;4946378;28;20023;-84
2024/01/28 06:14:14;;;;;;;5.40;2.70;;;0.30;99.90;;;;;;4946830;29;20087;-84
2024/01/28 06:16:40;;;;;;;19.75;4.53;;;0.30;99.90;;;;;;4944022;28;20368;-85
2024/01/28 06:19:05;;;;;;;10.82;3.28;;;0.40;99.90;;;;;;4947566;28;20039;-84
2024/01/28 06:21:31;;;;;;;5.13;2.53;;;0.40;99.90;;;;;;4942563;28;20026;-84
2024/01/28 06:23:56;;;;;;;10.75;2.97;;;0.30;99.90;;;;;;4945217;28;20050;-85
2024/01/28 06:26:23;;;;;;;9.48;2.83;;;0.30;99.90;;;;;;4947253;28;20026;-89
2024/01/28 06:28:49;;;;;;;10.05;2.90;;;0.30;99.90;;;;;;4945283;28;20110;-84
2024/01/28 06:31:15;;;;;;;12.90;3.33;;;0.30;99.90;;;;;;4942598;28;20138;-85
2024/01/28 06:33:41;;;;;;;12.85;4.57;;;0.20;99.90;;;;;;4946282;28;20030;-87
2024/01/28 06:36:07;;;;;;;106.97;36.92;;;0.20;99.90;;;;;;4946475;28;20035;-84
2024/01/28 06:38:32;;;;;;;83.22;27.38;;;0.20;99.90;;;;;;4944427;28;20131;-84
2024/01/28 06:40:59;;;;;;;63.08;24.13;;;0.20;99.90;;;;;;4948763;28;20046;-84
2024/01/28 06:43:27;;;;;;;53.40;15.82;;;0.20;99.90;;;;;;4944828;28;20125;-84
2024/01/28 06:45:53;;;;;;;39.90;15.10;;;0.30;99.90;;;;;;4957319;28;20039;-84
2024/01/28 06:48:19;;;;;;;45.80;16.55;;;0.30;99.90;;;;;;4941066;28;20035;-86
2024/01/28 06:50:46;;;;;;;51.70;16.55;;;0.30;99.90;;;;;;4946159;28;20027;-84
2024/01/28 06:53:11;;;;;;;55.67;15.93;;;0.20;99.90;;;;;;4939978;28;20039;-84
2024/01/28 06:55:38;;;;;;;39.17;12.93;;;0.20;99.90;;;;;;4946256;28;20019;-84
2024/01/28 06:58:04;;;;;;;34.88;11.10;;;0.20;99.90;;;;;;4943941;28;20170;-84
2024/01/28 07:00:30;;;;;;;38.92;11.20;;;0.30;99.90;;;;;;4945389;28;20114;-85
2024/01/28 07:02:56;;;;;;;23.75;7.90;;;0.30;99.90;;;;;;4943925;28;20027;-86
2024/01/28 07:05:22;;;;;;;29.98;7.60;;;0.30;99.90;;;;;;4944744;28;20030;-85
2024/01/28 07:07:48;;;;;;;16.30;6.47;;;0.30;99.90;;;;;;4946922;28;20086;-85
2024/01/28 07:10:13;;;;;;;15.27;5.38;;;0.30;99.90;;;;;;4944035;28;20027;-84
2024/01/28 07:12:39;;;;;;;12.43;4.18;;;0.20;99.90;;;;;;4949663;28;20090;-85
2024/01/28 07:15:05;;;;;;;17.67;5.18;;;0.20;99.90;;;;;;4947780;28;20119;-84
2024/01/28 07:17:31;;;;;;;18.13;4.55;;;0.30;99.90;;;;;;4940165;28;20081;-84
2024/01/28 07:19:57;;;;;;;7.53;3.08;;;0.30;99.90;;;;;;4947767;28;20031;-84
2024/01/28 07:22:23;;;;;;;12.07;3.55;;;0.20;99.90;;;;;;4952446;28;20015;-85
2024/01/28 07:24:49;;;;;;;11.45;2.97;;;0.20;99.90;;;;;;4947781;28;20046;-84
2024/01/28 07:27:15;;;;;;;9.95;3.05;;;0.20;99.90;;;;;;4949567;28;20023;-85
2024/01/28 07:29:40;;;;;;;12.23;3.75;;;0.30;99.90;;;;;;4948996;28;20023;-84
2024/01/28 07:32:06;;;;;;;5.28;2.70;;;0.30;99.90;;;;;;4950005;28;20045;-84
2024/01/28 07:34:31;;;;;;;9.63;2.60;;;0.30;99.90;;;;;;4947696;28;20027;-84
2024/01/28 07:36:58;;;;;;;12.85;4.03;;;0.30;99.90;;;;;;4950983;28;20055;-84
2024/01/28 07:39:25;;;;;;;19.23;5.25;;;0.30;99.90;;;;;;4957121;28;20368;-87
2024/01/28 07:41:51;;;;;;;14.65;4.75;;;0.40;99.90;;;;;;4950362;28;20341;-84
2024/01/28 07:44:17;;;;;;;18.10;6.40;;;0.40;99.90;;;;;;4957596;28;20083;-86
2024/01/28 07:46:43;;;;;;;23.08;8.15;;;0.50;99.90;;;;;;4955710;28;20035;-85
2024/01/28 07:49:09;;;;;;;22.88;7.50;;;0.50;99.90;;;;;;4947943;28;20015;-84
2024/01/28 07:51:34;;;;;;;27.20;7.50;;;0.60;99.90;;;;;;4953953;28;20039;-87
2024/01/28 07:54:00;;;;;;;108.47;40.65;;;0.70;99.90;;;;;;4949292;28;20121;-84
2024/01/28 07:56:27;;;;;;;46.47;14.25;;;0.70;99.90;;;;;;4947878;28;20071;-89
2024/01/28 07:58:53;;;;;;;23.13;7.85;;;0.80;99.90;;;;;;4946050;28;20492;-86
2024/01/28 08:01:18;;;;;;;11.23;5.00;;;0.80;99.90;;;;;;4948201;28;20034;-84
2024/01/28 08:03:44;;;;;;;10.75;4.22;;;0.90;99.90;;;;;;4947198;28;20264;-85
2024/01/28 08:06:09;;;;;;;25.30;6.45;;;1.00;99.90;;;;;;4942452;28;20071;-84
2024/01/28 08:08:35;;;;;;;15.15;5.82;;;1.10;99.90;;;;;;4946512;28;20053;-84
2024/01/28 08:11:01;;;;;;;23.65;9.13;;;1.20;99.90;;;;;;4949770;28;20550;-83
2024/01/28 08:13:26;;;;;;;28.38;9.55;;;1.20;99.90;;;;;;4946385;28;20034;-82
2024/01/28 08:15:54;;;;;;;28.30;11.10;;;1.30;99.90;;;;;;4948170;28;20250;-83
2024/01/28 08:18:20;;;;;;;25.63;10.75;;;1.30;99.90;;;;;;4949110;28;20137;-85
2024/01/28 08:20:46;;;;;;;25.60;10.95;;;1.30;99.90;;;;;;4942932;28;20973;-85
2024/01/28 08:23:11;;;;;;;64.95;29.67;;;1.30;99.90;;;;;;4945881;28;20042;-86
2024/01/28 08:25:37;;;;;;;48.58;18.05;;;1.40;99.90;;;;;;4949220;28;20092;-85
2024/01/28 08:28:03;;;;;;;28.60;10.30;;;1.50;99.90;;;;;;4947760;28;20632;-85
2024/01/28 08:30:28;;;;;;;31.75;10.32;;;1.50;99.90;;;;;;4940367;28;20015;-85
2024/01/28 08:32:54;;;;;;;36.38;11.27;;;1.50;99.90;;;;;;4946873;28;20051;-84
2024/01/28 08:35:21;;;;;;;18.55;6.47;;;1.60;99.90;;;;;;4954853;28;20459;-84
2024/01/28 08:37:47;;;;;;;19.45;6.40;;;1.60;99.90;;;;;;4946340;28;20183;-85
2024/01/28 08:40:14;;;;;;;64.63;18.45;;;1.70;99.90;;;;;;4951239;28;20403;-84
2024/01/28 08:42:40;;;;;;;48.33;17.77;;;1.70;99.90;;;;;;4945610;28;20104;-85
2024/01/28 08:45:05;;;;;;;118.18;38.80;;;1.70;99.90;;;;;;4948014;28;20484;-82
2024/01/28 08:47:31;;;;;;;89.85;31.45;;;1.80;99.90;;;;;;4953925;28;20042;-82
2024/01/28 08:49:57;;;;;;;77.05;27.67;;;1.90;99.90;;;;;;4944903;28;20531;-85
2024/01/28 08:52:23;;;;;;;50.85;18.38;;;2.00;99.90;;;;;;4942562;28;20063;-84
2024/01/28 08:54:49;;;;;;;22.48;5.18;;;2.10;99.90;;;;;;4946935;29;20435;-83
2024/01/28 08:57:14;;;;;;;12.15;3.42;;;2.30;99.90;;;;;;4947949;29;20035;-84
2024/01/28 08:59:40;;;;;;;13.63;3.40;;;2.60;99.90;;;;;;4946806;28;20381;-86
2024/01/28 09:02:06;;;;;;;36.67;12.15;;;3.00;99.90;;;;;;4942611;28;20150;-86
2024/01/28 09:04:31;;;;;;;30.05;11.98;;;3.30;99.90;;;;;;4942761;28;20042;-84
2024/01/28 09:06:57;;;;;;;30.42;11.05;;;3.50;99.90;;;;;;4947023;28;20055;-88
2024/01/28 09:09:22;;;;;;;35.63;11.65;;;3.50;99.90;;;;;;4950359;28;20134;-84
2024/01/28 09:11:48;;;;;;;27.05;12.02;;;3.60;99.90;;;;;;4947192;29;20028;-93
2024/01/28 09:14:14;;;;;;;26.80;10.35;;;3.60;99.90;;;;;;4948344;28;20028;-83
2024/01/28 09:16:40;;;;;;;16.40;7.63;;;3.70;99.90;;;;;;4952899;28;20046;-85
2024/01/28 09:19:05;;;;;;;13.23;5.05;;;3.70;99.90;;;;;;4951734;28;20154;-83
2024/01/28 09:21:31;;;;;;;19.52;6.85;;;3.70;99.90;;;;;;4950838;28;20019;-81
2024/01/28 09:23:58;;;;;;;6.50;2.70;;;3.80;99.90;;;;;;4957689;28;20321;-83
2024/01/28 09:26:24;;;;;;;7.10;3.30;;;3.90;99.90;;;;;;4952163;28;20027;-82
2024/01/28 09:28:50;;;;;;;5.60;2.10;;;3.90;99.90;;;;;;4938732;28;20032;-84
2024/01/28 09:31:16;;;;;;;5.70;1.95;;;4.00;99.90;;;;;;4946774;28;20575;-82
2024/01/28 09:33:42;;;;;;;8.95;3.42;;;4.20;99.90;;;;;;4947222;28;20082;-86
2024/01/28 09:36:08;;;;;;;6.65;2.05;;;4.30;99.90;;;;;;4954694;28;20602;-81
2024/01/28 09:38:34;;;;;;;3.97;1.77;;;4.60;99.90;;;;;;4943548;28;20027;-82
2024/01/28 09:41:22;;;;;;;2.53;1.38;;;4.80;99.90;;;;;;4945836;28;20472;-80
2024/01/28 09:43:48;;;;;;;5.60;2.25;;;5.10;99.90;;;;;;4950376;28;20026;-82
2024/01/28 09:46:14;;;;;;;5.70;1.60;;;5.40;99.90;;;;;;4946226;28;20042;-84
2024/01/28 09:48:44;;;;;;;3.38;1.50;;;5.50;99.90;;;;;;4944863;28;20027;-85
2024/01/28 09:51:10;;;;;;;5.80;1.63;;;5.80;99.90;;;;;;4929016;28;20472;-84
2024/01/28 09:53:36;;;;;;;6.22;1.30;;;6.00;99.90;;;;;;4948914;28;20064;-85
2024/01/28 09:56:04;;;;;;;11.82;1.50;;;6.30;96.90;;;;;;4948424;29;20059;-90
2024/01/28 09:58:30;;;;;;;6.03;1.70;;;6.50;96.50;;;;;;4948709;28;20047;-83
2024/01/28 10:00:55;;;;;;;2.90;1.80;;;6.70;94.30;;;;;;4952795;28;20078;-83
2024/01/28 10:03:21;;;;;;;5.65;2.45;;;6.90;92.30;;;;;;4946477;28;20054;-87
2024/01/28 10:05:47;;;;;;;4.20;1.13;;;7.00;76.30;;;;;;4947489;28;20094;-82
2024/01/28 10:08:14;;;;;;;4.95;1.40;;;7.20;88.50;;;;;;4949654;28;20120;-83
2024/01/28 10:10:40;;;;;;;4.45;1.30;;;7.20;80.90;;;;;;4944200;29;20453;-87
2024/01/28 10:13:07;;;;;;;5.47;1.30;;;7.30;76.30;;;;;;4939041;28;20476;-86
2024/01/28 10:15:34;;;;;;;2.45;1.20;;;7.40;83.30;;;;;;4946713;28;20019;-82
2024/01/28 10:18:00;;;;;;;6.00;1.60;;;7.40;84.90;;;;;;4954439;28;20027;-82
2024/01/28 10:20:28;;;;;;;9.75;1.90;;;7.40;89.60;;;;;;4947694;29;20041;-81
2024/01/28 10:22:55;;;;;;;6.55;1.88;;;7.40;86.20;;;;;;4945952;28;20104;-82
2024/01/28 10:25:22;;;;;;;5.15;1.60;;;7.30;87.60;;;;;;4931604;28;20460;-81
2024/01/28 10:27:48;;;;;;;9.18;1.50;;;7.40;81.10;;;;;;4940669;28;20057;-84
2024/01/28 10:30:16;;;;;;;14.48;5.95;;;7.40;79.30;;;;;;4944055;28;20035;-86
2024/01/28 10:32:42;;;;;;;9.98;3.35;;;7.40;79.40;;;;;;4943085;28;20397;-82
2024/01/28 10:35:16;;;;;;;11.95;4.32;;;7.50;76.70;;;;;;4947935;29;20035;-83
2024/01/28 10:37:41;;;;;;;13.68;4.30;;;7.40;97.50;;;;;;4944839;28;20039;-84
2024/01/28 10:40:08;;;;;;;8.25;3.40;;;7.20;99.90;;;;;;4953558;28;20393;-84
2024/01/28 10:42:41;;;;;;;11.30;5.60;;;7.00;99.90;;;;;;4951504;28;20623;-84
2024/01/28 10:45:11;;;;;;;7.38;3.38;;;6.90;99.90;;;;;;4924719;29;20031;-87
2024/01/28 10:47:40;;;;;;;5.07;2.85;;;6.80;99.90;;;;;;4951096;28;20030;-84
2024/01/28 10:50:07;;;;;;;11.23;3.70;;;6.80;99.90;;;;;;4942278;28;20043;-83
2024/01/28 10:52:35;;;;;;;13.85;3.33;;;6.80;99.90;;;;;;4944687;28;20043;-83
2024/01/28 10:55:01;;;;;;;9.65;4.32;;;6.80;99.90;;;;;;4950545;28;20351;-84
2024/01/28 10:57:28;;;;;;;6.72;3.22;;;6.80;99.90;;;;;;4951148;28;20472;-83
2024/01/28 10:59:54;;;;;;;7.57;3.08;;;6.80;99.90;;;;;;4946253;28;20062;-83
2024/01/28 11:02:21;;;;;;;5.90;3.13;;;6.80;99.90;;;;;;4940912;28;20379;-83
2024/01/28 11:04:48;;;;;;;8.25;2.38;;;6.80;99.90;;;;;;4937531;28;20039;-83
2024/01/28 11:07:19;;;;;;;2.90;1.00;;;6.90;99.90;;;;;;4943508;28;20475;-87
2024/01/28 11:09:45;;;;;;;2.45;1.23;;;7.10;83.00;;;;;;4946575;28;20026;-84
2024/01/28 11:12:11;;;;;;;1.98;1.02;;;7.40;79.80;;;;;;4947451;28;20027;-87
2024/01/28 11:14:39;;;;;;;2.30;1.15;;;7.50;78.50;;;;;;4946205;28;20034;-84
2024/01/28 11:17:09;;;;;;;1.30;1.00;;;7.70;77.40;;;;;;4944905;28;20086;-87
2024/01/28 11:19:34;;;;;;;4.00;2.22;;;7.70;73.80;;;;;;4954054;28;20042;-83
2024/01/28 11:22:02;;;;;;;1.50;0.98;;;7.80;66.20;;;;;;4946998;28;20027;-87
2024/01/28 11:24:28;;;;;;;6.28;1.50;;;8.00;67.50;;;;;;4950648;28;20067;-90
2024/01/28 11:26:58;;;;;;;6.60;3.22;;;8.00;70.30;;;;;;4950394;28;20030;-86
2024/01/28 11:29:34;;;;;;;5.43;1.55;;;8.10;66.20;;;;;;4954289;28;20677;-93
2024/01/28 11:32:04;;;;;;;4.40;1.55;;;8.10;61.00;;;;;;4943365;28;20031;-88
2024/01/28 11:34:30;;;;;;;2.72;0.93;;;8.20;67.00;;;;;;4939691;28;20172;-86
2024/01/28 11:36:58;;;;;;;5.93;1.15;;;8.10;72.30;;;;;;4948292;28;20126;-87
2024/01/28 11:39:33;;;;;;;5.03;1.40;;;8.00;71.20;;;;;;4951378;28;20075;-89
2024/01/28 11:41:58;;;;;;;3.03;0.98;;;7.90;74.80;;;;;;4948893;28;20031;-80
2024/01/28 11:44:24;;;;;;;8.82;1.50;;;7.90;70.40;;;;;;4955099;28;20078;-81
2024/01/28 11:46:50;;;;;;;3.67;1.30;;;8.10;70.70;;;;;;4946467;28;20476;-81
2024/01/28 11:49:16;;;;;;;4.78;1.33;;;8.10;67.00;;;;;;4952104;28;20034;-82
2024/01/28 11:51:41;;;;;;;1.30;1.05;;;8.20;68.80;;;;;;4953834;28;20051;-85
2024/01/28 11:54:07;;;;;;;3.05;1.20;;;8.20;71.20;;;;;;4945433;28;20031;-84
2024/01/28 11:56:35;;;;;;;3.50;1.10;;;8.20;66.50;;;;;;4955587;28;20026;-83
2024/01/28 11:59:03;;;;;;;6.82;1.27;;;8.20;70.80;;;;;;4952901;28;20065;-89
2024/01/28 12:01:29;;;;;;;7.00;1.42;;;8.20;65.90;;;;;;4951271;28;20042;-83
2024/01/28 12:03:55;;;;;;;1.95;1.00;;;8.30;68.60;;;;;;4950269;28;20034;-82
2024/01/28 12:06:22;;;;;;;3.53;1.33;;;8.30;69.90;;;;;;4949476;28;20269;-85
2024/01/28 12:08:50;;;;;;;7.97;3.78;;;8.30;67.00;;;;;;4943100;28;20039;-82
2024/01/28 12:11:25;;;;;;;4.13;1.20;;;8.40;66.00;;;;;;4944132;28;20057;-82
2024/01/28 12:13:51;;;;;;;2.10;1.85;;;8.50;62.50;;;;;;4949966;28;20109;-80
2024/01/28 12:16:22;;;;;;;4.78;1.40;;;8.70;62.20;;;;;;4946976;28;20131;-79
2024/01/28 12:18:49;;;;;;;2.05;1.25;;;8.80;61.90;;;;;;4952612;28;20019;-83
2024/01/28 12:21:19;;;;;;;1.05;0.70;;;8.80;65.10;;;;;;4954866;28;20079;-81
2024/01/28 12:23:51;;;;;;;2.67;1.20;;;8.70;67.30;;;;;;4946970;28;20082;-82
2024/01/28 12:26:17;;;;;;;1.83;1.08;;;8.70;65.50;;;;;;4950142;28;20484;-83
2024/01/28 12:28:45;;;;;;;2.90;1.00;;;8.60;69.60;;;;;;4948522;28;20039;-88
2024/01/28 12:31:11;;;;;;;1.17;0.90;;;8.70;59.60;;;;;;4956131;28;20034;-82
2024/01/28 12:33:38;;;;;;;2.78;1.10;;;8.80;58.40;;;;;;4949830;28;21691;-83
2024/01/28 12:36:07;;;;;;;4.32;1.30;;;8.80;66.00;;;;;;4944287;28;20118;-89
2024/01/28 12:38:33;;;;;;;7.57;2.45;;;8.80;63.80;;;;;;4949628;28;20104;-85
2024/01/28 12:40:59;;;;;;;3.00;1.20;;;8.90;57.00;;;;;;4928887;28;20130;-84
2024/01/28 12:43:25;;;;;;;16.73;5.82;;;9.00;62.40;;;;;;4940779;28;20503;-86
2024/01/28 12:45:51;;;;;;;3.30;2.13;;;9.00;67.00;;;;;;4934021;28;20031;-84